Terminal Aerodrome Forecast
Issued by NWS

Home | Current Version | Previous Version | Text Only | Print | Product List | Glossary On
Versions: 1 2 3 4 5 6 7 8 9 10 11 12
000
FTUS41 KCAR 252339
TAFHUL
TAF
KHUL 252339Z 2600/2624 14006KT P6SM VCSH OVC060
     FM260200 14006KT P6SM -SHRA OVC050
     FM260400 14006KT 4SM -SHRA BR OVC020
     FM260800 18006KT 3SM BR VCSH OVC008
     FM261200 24006KT P6SM VCSH OVC015
     FM261500 28006KT P6SM VCSH BKN050
     FM261800 28006KT P6SM VCTS BKN050CB
     FM262200 30006KT P6SM BKN050=

USA.gov is the U.S. government's official web portal to all federal, state and local government web resources and services.